createdAt,value
2022-12-23T00:00:38.141Z,999.93
2022-12-23T00:01:38.523Z,999.99
2022-12-23T00:02:38.403Z,999.96
2022-12-23T00:03:38.282Z,1000.02
2022-12-23T00:04:38.250Z,1000.03
2022-12-23T00:05:38.571Z,1000.06
2022-12-23T00:06:38.302Z,1000.04
2022-12-23T00:07:38.321Z,1000.04
2022-12-23T00:08:38.639Z,1000.04
2022-12-23T00:09:38.377Z,1000.05
2022-12-23T00:10:38.401Z,1000.06
2022-12-23T00:11:38.424Z,1000.04
2022-12-23T00:12:38.457Z,1000.00
2022-12-23T00:13:38.506Z,1000.04
2022-12-23T00:14:38.516Z,1000.02
2022-12-23T00:15:38.838Z,1000.01
2022-12-23T00:16:38.681Z,1000.03
2022-12-23T00:17:38.584Z,999.98
2022-12-23T00:18:38.629Z,1000.00
2022-12-23T00:19:38.637Z,1000.03
2022-12-23T00:20:38.666Z,1000.01
2022-12-23T00:21:38.699Z,999.96
2022-12-23T00:22:39.321Z,1000.00
2022-12-23T00:23:38.736Z,1000.04
2022-12-23T00:24:38.776Z,1000.00
2022-12-23T00:26:38.847Z,999.97
2022-12-23T00:27:38.851Z,1000.00
2022-12-23T00:28:38.874Z,999.97
2022-12-23T00:29:39.229Z,1000.02
2022-12-23T00:30:39.024Z,1000.03
2022-12-23T00:31:39.038Z,1000.06
2022-12-23T00:32:38.976Z,1000.08
2022-12-23T00:33:39.007Z,1000.07
2022-12-23T00:34:39.101Z,1000.10
2022-12-23T00:35:39.140Z,1000.12
2022-12-23T00:37:39.407Z,1000.10
2022-12-23T00:38:39.135Z,1000.14
2022-12-23T00:39:39.269Z,1000.17
2022-12-23T00:40:39.196Z,1000.18
2022-12-23T00:41:39.214Z,1000.14
2022-12-23T00:42:39.242Z,1000.14
2022-12-23T00:43:39.273Z,1000.16
2022-12-23T00:44:39.599Z,1000.14
2022-12-23T00:45:39.427Z,1000.15
2022-12-23T00:46:39.347Z,1000.21
2022-12-23T00:47:39.372Z,1000.20
2022-12-23T00:48:39.400Z,1000.20
2022-12-23T00:49:39.502Z,1000.18
2022-12-23T00:50:39.464Z,1000.15
2022-12-23T00:51:39.479Z,1000.17
2022-12-23T00:52:39.508Z,1000.17
2022-12-23T00:53:39.536Z,1000.18
2022-12-23T00:55:39.585Z,1000.17
2022-12-23T00:56:39.611Z,1000.20
2022-12-23T00:57:39.945Z,1000.22
2022-12-23T00:58:39.665Z,1000.22
2022-12-23T00:59:39.693Z,1000.20
2022-12-23T01:00:39.727Z,1000.24
2022-12-23T01:01:39.931Z,1000.24
2022-12-23T01:02:39.951Z,1000.25
2022-12-23T01:03:40.358Z,1000.25
2022-12-23T01:04:39.832Z,1000.23
2022-12-23T01:05:39.861Z,1000.27
2022-12-23T01:06:39.869Z,1000.26
2022-12-23T01:07:39.908Z,1000.25
2022-12-23T01:08:39.930Z,1000.24
2022-12-23T01:09:40.257Z,1000.27
2022-12-23T01:10:39.980Z,1000.27
2022-12-23T01:11:40.013Z,1000.24
2022-12-23T01:12:40.038Z,1000.27
2022-12-23T01:13:40.067Z,1000.26
2022-12-23T01:14:40.083Z,1000.32
2022-12-23T01:15:40.425Z,1000.33
2022-12-23T01:16:40.211Z,1000.39
2022-12-23T01:17:40.177Z,1000.38
2022-12-23T01:18:40.187Z,1000.39
2022-12-23T01:19:40.223Z,1000.43
2022-12-23T01:20:40.355Z,1000.44
2022-12-23T01:21:40.329Z,1000.41
2022-12-23T01:22:40.557Z,1000.45
2022-12-23T01:23:40.320Z,1000.47
2022-12-23T01:24:40.357Z,1000.43
2022-12-23T01:25:40.371Z,1000.46
2022-12-23T01:26:40.395Z,1000.45
2022-12-23T01:27:40.427Z,1000.46
2022-12-23T01:28:40.456Z,1000.47
2022-12-23T01:29:40.792Z,1000.46
2022-12-23T01:30:40.501Z,1000.50
2022-12-23T01:31:40.657Z,1000.46
2022-12-23T01:32:40.561Z,1000.49
2022-12-23T01:33:40.607Z,1000.51
2022-12-23T01:34:40.606Z,1000.55
2022-12-23T01:35:40.640Z,1000.53
2022-12-23T01:36:40.919Z,1000.52
2022-12-23T01:37:40.691Z,1000.53
2022-12-23T01:38:40.837Z,1000.56
2022-12-23T01:39:40.738Z,1000.58
2022-12-23T01:40:40.782Z,1000.65
2022-12-23T01:41:40.796Z,1000.62
2022-12-23T01:42:40.830Z,1000.65
2022-12-23T01:43:41.151Z,1000.65
2022-12-23T01:44:40.868Z,1000.66
2022-12-23T01:45:40.940Z,1000.68
2022-12-23T01:46:40.950Z,1000.70
2022-12-23T01:47:40.964Z,1000.73
2022-12-23T01:48:40.975Z,1000.71
2022-12-23T01:49:41.086Z,1000.76
2022-12-23T01:50:41.341Z,1000.78
2022-12-23T01:51:41.055Z,1000.76
2022-12-23T01:53:41.111Z,1000.73
2022-12-23T01:54:41.131Z,1000.78
2022-12-23T01:55:41.204Z,1000.79
2022-12-23T01:56:41.183Z,1000.82
2022-12-23T01:57:41.461Z,1000.83
2022-12-23T01:58:41.235Z,1000.84
2022-12-23T01:59:41.371Z,1000.82
2022-12-23T02:00:41.295Z,1000.84
2022-12-23T02:01:41.420Z,1000.83
2022-12-23T02:02:41.479Z,1000.78
2022-12-23T02:03:41.418Z,1000.81
2022-12-23T02:04:41.641Z,1000.82
2022-12-23T02:05:41.447Z,1000.77
2022-12-23T02:06:41.463Z,1000.79
2022-12-23T02:07:41.473Z,1000.79
2022-12-23T02:08:41.497Z,1000.78
2022-12-23T02:09:41.525Z,1000.78
2022-12-23T02:10:41.550Z,1000.80
2022-12-23T02:11:41.824Z,1000.81
2022-12-23T02:12:41.620Z,1000.78
2022-12-23T02:13:41.648Z,1000.79
2022-12-23T02:14:41.652Z,1000.76
2022-12-23T02:15:41.985Z,1000.74
2022-12-23T02:16:41.749Z,1000.74
2022-12-23T02:17:41.736Z,1000.75
2022-12-23T02:18:42.055Z,1000.73
2022-12-23T02:19:41.783Z,1000.69
2022-12-23T02:20:41.809Z,1000.70
2022-12-23T02:21:41.870Z,1000.67
2022-12-23T02:22:41.872Z,1000.70
2022-12-23T02:24:42.217Z,1000.70
2022-12-23T02:25:41.940Z,1000.75
2022-12-23T02:26:41.978Z,1000.75
2022-12-23T02:27:42.010Z,1000.82
2022-12-23T02:28:42.022Z,1000.81
2022-12-23T02:29:42.053Z,1000.87
2022-12-23T02:30:42.429Z,1000.87
2022-12-23T02:31:42.101Z,1000.92
2022-12-23T02:32:42.134Z,1000.91
2022-12-23T02:33:42.147Z,1000.91
2022-12-23T02:34:42.232Z,1000.93
2022-12-23T02:35:42.203Z,1000.99
2022-12-23T02:36:42.491Z,1000.95
2022-12-23T02:37:42.276Z,1001.04
2022-12-23T02:38:42.285Z,1001.02
2022-12-23T02:39:42.321Z,1000.99
2022-12-23T02:40:42.355Z,1000.99
2022-12-23T02:41:42.365Z,1001.04
2022-12-23T02:42:42.639Z,1001.01
2022-12-23T02:43:42.431Z,1001.07
2022-12-23T02:44:42.437Z,1001.07
2022-12-23T02:45:42.591Z,1001.06
2022-12-23T02:46:42.554Z,1001.08
2022-12-23T02:47:42.518Z,1001.09
2022-12-23T02:48:42.542Z,1001.12
2022-12-23T02:49:42.819Z,1001.13
2022-12-23T02:50:42.595Z,1001.14
2022-12-23T02:51:42.656Z,1001.11
2022-12-23T02:52:42.652Z,1001.08
2022-12-23T02:53:42.686Z,1001.10
2022-12-23T02:54:42.699Z,1001.12
2022-12-23T02:55:42.729Z,1001.05
2022-12-23T02:56:43.087Z,1001.07
2022-12-23T02:57:42.781Z,1001.07
2022-12-23T02:58:42.806Z,1001.05
2022-12-23T02:59:42.833Z,1001.06
2022-12-23T03:00:42.853Z,1001.10
2022-12-23T03:01:43.088Z,1001.10
2022-12-23T03:02:43.129Z,1001.16
2022-12-23T03:03:43.249Z,1001.19
2022-12-23T03:04:42.963Z,1001.25
2022-12-23T03:05:42.993Z,1001.28
2022-12-23T03:06:43.008Z,1001.28
2022-12-23T03:07:43.109Z,1001.31
2022-12-23T03:08:43.097Z,1001.33
2022-12-23T03:09:43.110Z,1001.29
2022-12-23T03:10:43.371Z,1001.36
2022-12-23T03:11:43.144Z,1001.36
2022-12-23T03:12:43.199Z,1001.40
2022-12-23T03:13:43.192Z,1001.46
2022-12-23T03:14:43.224Z,1001.47
2022-12-23T03:15:43.434Z,1001.47
2022-12-23T03:16:43.271Z,1001.58
2022-12-23T03:17:43.644Z,1001.51
2022-12-23T03:19:43.345Z,1001.67
2022-12-23T03:20:43.368Z,1001.70
2022-12-23T03:21:43.403Z,1001.71
2022-12-23T03:24:43.780Z,1001.76
2022-12-23T03:25:43.535Z,1001.74
2022-12-23T03:26:43.522Z,1001.74
2022-12-23T03:27:43.555Z,1001.77
2022-12-23T03:28:43.575Z,1001.75
2022-12-23T03:29:43.603Z,1001.71
2022-12-23T03:30:43.661Z,1001.65
2022-12-23T03:32:43.948Z,1001.61
2022-12-23T03:33:43.705Z,1001.62
2022-12-23T03:34:43.738Z,1001.54
2022-12-23T03:35:43.763Z,1001.52
2022-12-23T03:37:43.823Z,1001.57
2022-12-23T03:38:43.846Z,1001.65
2022-12-23T03:39:44.171Z,1001.65
2022-12-23T03:40:43.889Z,1001.67
2022-12-23T03:41:43.939Z,1001.64
2022-12-23T03:42:44.037Z,1001.60
2022-12-23T03:43:50.367Z,1001.64
2022-12-23T03:45:03.685Z,1001.64
2022-12-23T03:45:44.034Z,1001.64
2022-12-23T03:46:44.438Z,1001.63
2022-12-23T03:47:44.069Z,1001.62
2022-12-23T03:48:44.095Z,1001.67
2022-12-23T03:49:44.124Z,1001.64
2022-12-23T03:50:44.176Z,1001.67
2022-12-23T03:51:44.174Z,1001.74
2022-12-23T03:52:44.196Z,1001.71
2022-12-23T03:53:44.483Z,1001.72
2022-12-23T03:54:44.255Z,1001.68
2022-12-23T03:55:44.278Z,1001.72
2022-12-23T03:56:44.302Z,1001.70
2022-12-23T03:57:44.360Z,1001.64
2022-12-23T03:58:44.348Z,1001.60
2022-12-23T03:59:44.378Z,1001.62
2022-12-23T04:00:44.668Z,1001.64
2022-12-23T04:01:44.539Z,1001.59
2022-12-23T04:02:44.617Z,1001.59
2022-12-23T04:03:44.526Z,1001.56
2022-12-23T04:04:44.511Z,1001.56
2022-12-23T04:05:44.544Z,1001.52
2022-12-23T04:06:44.554Z,1001.50
2022-12-23T04:07:44.886Z,1001.49
2022-12-23T04:08:45.355Z,1001.48
2022-12-23T04:09:44.633Z,1001.45
2022-12-23T04:11:44.684Z,1001.49
2022-12-23T04:12:44.779Z,1001.45
2022-12-23T04:13:44.839Z,1001.49
2022-12-23T04:14:45.064Z,1001.54
2022-12-23T04:15:44.866Z,1001.53
2022-12-23T04:16:44.817Z,1001.53
2022-12-23T04:17:44.866Z,1001.55
2022-12-23T04:18:44.864Z,1001.52
2022-12-23T04:19:44.911Z,1001.47
2022-12-23T04:20:44.918Z,1001.47
2022-12-23T04:21:45.187Z,1001.45
2022-12-23T04:22:44.965Z,1001.44
2022-12-23T04:23:45.117Z,1001.48
2022-12-23T04:24:45.043Z,1001.47
2022-12-23T04:25:45.048Z,1001.45
2022-12-23T04:26:45.070Z,1001.45
2022-12-23T04:27:45.096Z,1001.43
2022-12-23T04:28:45.417Z,1001.46
2022-12-23T04:29:45.177Z,1001.43
2022-12-23T04:30:45.172Z,1001.44
2022-12-23T04:31:45.256Z,1001.48
2022-12-23T04:32:45.229Z,1001.54
2022-12-23T04:34:45.580Z,1001.55
2022-12-23T04:35:45.301Z,1001.56
2022-12-23T04:36:45.328Z,1001.56
2022-12-23T04:37:45.353Z,1001.57
2022-12-23T04:38:45.375Z,1001.56
2022-12-23T04:39:45.407Z,1001.61
2022-12-23T04:40:45.730Z,1001.63
2022-12-23T04:41:45.448Z,1001.62
2022-12-23T04:42:45.476Z,1001.63
2022-12-23T04:43:52.573Z,1001.65
2022-12-23T04:44:45.532Z,1001.64
2022-12-23T04:45:45.643Z,1001.62
2022-12-23T04:46:45.912Z,1001.63
2022-12-23T04:47:45.605Z,1001.69
2022-12-23T04:48:45.627Z,1001.66
2022-12-23T04:49:45.657Z,1001.68
2022-12-23T04:50:45.682Z,1001.68
2022-12-23T04:51:45.707Z,1001.67
2022-12-23T04:52:45.745Z,1001.64
2022-12-23T04:53:46.083Z,1001.66
2022-12-23T04:54:46.610Z,1001.65
2022-12-23T04:55:45.812Z,1001.64
2022-12-23T04:56:45.834Z,1001.63
2022-12-23T04:57:45.864Z,1001.65
2022-12-23T04:58:45.889Z,1001.71
2022-12-23T04:59:45.921Z,1001.71
2022-12-23T05:00:46.297Z,1001.73
2022-12-23T05:01:46.184Z,1001.76
2022-12-23T05:02:46.187Z,1001.75
2022-12-23T05:03:46.020Z,1001.74
2022-12-23T05:04:46.115Z,1001.75
2022-12-23T05:05:46.085Z,1001.77
2022-12-23T05:06:46.091Z,1001.78
2022-12-23T05:07:46.420Z,1001.81
2022-12-23T05:08:46.152Z,1001.84
2022-12-23T05:09:46.175Z,1001.87
2022-12-23T05:10:46.205Z,1001.82
2022-12-23T05:11:46.245Z,1001.88
2022-12-23T05:12:46.248Z,1001.86
2022-12-23T05:13:46.289Z,1001.84
2022-12-23T05:14:46.548Z,1001.89
2022-12-23T05:15:46.322Z,1001.91
2022-12-23T05:16:46.445Z,1001.89
2022-12-23T05:17:46.416Z,1001.89
2022-12-23T05:18:46.508Z,1001.88
2022-12-23T05:19:46.429Z,1001.86
2022-12-23T05:20:46.445Z,1001.87
2022-12-23T05:21:46.773Z,1001.87
2022-12-23T05:22:46.504Z,1001.85
2022-12-23T05:23:46.537Z,1001.89
2022-12-23T05:24:46.555Z,1001.92
2022-12-23T05:25:46.579Z,1001.87
2022-12-23T05:26:48.036Z,1001.86
2022-12-23T05:27:46.638Z,1001.83
2022-12-23T05:28:46.953Z,1001.88
2022-12-23T05:29:46.834Z,1001.91
2022-12-23T05:30:46.708Z,1001.97
2022-12-23T05:31:46.788Z,1001.97
2022-12-23T05:32:46.754Z,1001.94
2022-12-23T05:33:46.893Z,1001.93
2022-12-23T05:34:46.815Z,1001.91
2022-12-23T05:35:47.136Z,1001.92
2022-12-23T05:36:46.849Z,1001.90
2022-12-23T05:37:46.880Z,1001.89
2022-12-23T05:38:46.904Z,1001.88
2022-12-23T05:39:46.952Z,1001.85
2022-12-23T05:40:46.966Z,1001.89
2022-12-23T05:42:47.309Z,1001.92
2022-12-23T05:44:47.056Z,1001.97
2022-12-23T05:45:47.192Z,1001.97
2022-12-23T05:46:47.113Z,1002.03
2022-12-23T05:47:47.136Z,1002.06
2022-12-23T05:48:47.164Z,1002.00
2022-12-23T05:49:47.514Z,1002.02
2022-12-23T05:50:47.238Z,1002.05
2022-12-23T05:51:47.239Z,1002.07
2022-12-23T05:52:47.261Z,1002.09
2022-12-23T05:53:47.308Z,1002.10
2022-12-23T05:54:47.318Z,1002.08
2022-12-23T05:55:47.342Z,1002.14
2022-12-23T05:56:47.696Z,1002.25
2022-12-23T05:57:47.399Z,1002.24
2022-12-23T05:58:47.408Z,1002.27
2022-12-23T05:59:47.442Z,1002.26
2022-12-23T06:00:47.468Z,1002.27
2022-12-23T06:01:47.605Z,1002.28
2022-12-23T06:02:53.455Z,1002.28
2022-12-23T06:03:47.887Z,1002.27
2022-12-23T06:04:47.567Z,1002.27
2022-12-23T06:05:47.619Z,1002.31
2022-12-23T06:06:47.620Z,1002.29
2022-12-23T06:07:47.643Z,1002.27
2022-12-23T06:08:47.679Z,1002.31
2022-12-23T06:09:47.700Z,1002.35
2022-12-23T06:10:47.722Z,1002.31
2022-12-23T06:11:47.748Z,1002.31
2022-12-23T06:12:47.771Z,1002.32
2022-12-23T06:13:47.799Z,1002.33
2022-12-23T06:14:47.823Z,1002.28
2022-12-23T06:15:47.847Z,1002.29
2022-12-23T06:16:48.277Z,1002.26
2022-12-23T06:17:47.896Z,1002.21
2022-12-23T06:18:47.938Z,1002.19
2022-12-23T06:19:47.959Z,1002.21
2022-12-23T06:20:47.979Z,1002.17
2022-12-23T06:22:48.044Z,1002.18
2022-12-23T06:23:48.051Z,1002.19
2022-12-23T06:24:48.075Z,1002.21
2022-12-23T06:25:48.105Z,1002.17
2022-12-23T06:26:51.986Z,1002.17
2022-12-23T06:27:48.156Z,1002.18
2022-12-23T06:28:48.516Z,1002.12
2022-12-23T06:29:48.209Z,1002.13
2022-12-23T06:30:48.228Z,1002.15
2022-12-23T06:31:48.352Z,1002.17
2022-12-23T06:32:48.282Z,1002.20
2022-12-23T06:33:48.305Z,1002.17
2022-12-23T06:34:48.634Z,1002.16
2022-12-23T06:35:48.351Z,1002.10
2022-12-23T06:36:48.383Z,1002.09
2022-12-23T06:37:48.406Z,1002.14
2022-12-23T06:38:48.464Z,1002.09
2022-12-23T06:39:48.464Z,1002.14
2022-12-23T06:40:48.487Z,1002.14
2022-12-23T06:41:48.764Z,1002.13
2022-12-23T06:42:48.533Z,1002.15
2022-12-23T06:43:53.901Z,1002.13
2022-12-23T06:44:48.583Z,1002.11
2022-12-23T06:46:48.646Z,1002.08
2022-12-23T06:47:48.663Z,1002.09
2022-12-23T06:48:48.991Z,1002.18
2022-12-23T06:49:48.718Z,1002.16
2022-12-23T06:50:48.739Z,1002.12
2022-12-23T06:51:48.765Z,1002.17
2022-12-23T06:52:48.791Z,1002.18
2022-12-23T06:53:48.822Z,1002.15
2022-12-23T06:54:48.957Z,1002.07
2022-12-23T06:55:48.877Z,1002.08
2022-12-23T06:56:48.897Z,1002.00
2022-12-23T06:57:48.916Z,1001.98
2022-12-23T06:58:48.945Z,1002.00
2022-12-23T06:59:48.968Z,1002.00
2022-12-23T07:00:49.041Z,1002.05
2022-12-23T07:01:49.513Z,1002.07
2022-12-23T07:02:49.150Z,1002.05
2022-12-23T07:03:49.067Z,1002.07
2022-12-23T07:04:49.105Z,1002.04
2022-12-23T07:05:49.118Z,1002.07
2022-12-23T07:06:49.147Z,1002.05
2022-12-23T07:07:49.172Z,1002.06
2022-12-23T07:08:49.446Z,1002.09
2022-12-23T07:10:49.268Z,1002.15
2022-12-23T07:11:49.274Z,1002.21
2022-12-23T07:12:51.027Z,1002.29
2022-12-23T07:13:49.322Z,1002.42
2022-12-23T07:14:49.364Z,1002.45
2022-12-23T07:15:49.686Z,1002.54
2022-12-23T07:16:49.442Z,1002.62
2022-12-23T07:17:49.424Z,1002.61
2022-12-23T07:18:49.451Z,1002.63
2022-12-23T07:19:49.484Z,1002.67
2022-12-23T07:20:49.500Z,1002.71
2022-12-23T07:21:49.539Z,1002.73
2022-12-23T07:22:49.799Z,1002.72
2022-12-23T07:23:49.652Z,1002.73
2022-12-23T07:24:49.603Z,1002.67
2022-12-23T07:25:49.634Z,1002.67
2022-12-23T07:26:49.688Z,1002.68
2022-12-23T07:27:49.712Z,1002.68
2022-12-23T07:28:49.705Z,1002.71
2022-12-23T07:30:49.773Z,1002.76
2022-12-23T07:31:49.875Z,1002.79
2022-12-23T07:32:49.812Z,1002.80
2022-12-23T07:34:50.159Z,1002.73
2022-12-23T07:35:49.884Z,1002.77
2022-12-23T07:36:49.917Z,1002.79
2022-12-23T07:37:49.938Z,1002.85
2022-12-23T07:38:49.960Z,1002.85
2022-12-23T07:39:50.002Z,1002.79
2022-12-23T07:40:50.332Z,1002.80
2022-12-23T07:41:59.004Z,1002.79
2022-12-23T07:42:50.151Z,1002.83
2022-12-23T07:43:50.093Z,1002.78
2022-12-23T07:44:50.112Z,1002.76
2022-12-23T07:45:55.620Z,1002.75
2022-12-23T07:46:50.411Z,1002.76
2022-12-23T07:47:50.195Z,1002.79
2022-12-23T07:48:50.235Z,1002.84
2022-12-23T07:49:50.239Z,1002.77
2022-12-23T07:50:50.263Z,1002.82
2022-12-23T07:51:50.290Z,1002.82
2022-12-23T07:52:50.318Z,1002.83
2022-12-23T07:54:50.666Z,1002.83
2022-12-23T07:55:56.254Z,1002.81
2022-12-23T07:56:50.427Z,1002.81
2022-12-23T07:57:50.452Z,1002.82
2022-12-23T07:58:50.493Z,1002.78
2022-12-23T08:00:50.766Z,1002.81
2022-12-23T08:01:50.675Z,1002.81
2022-12-23T08:02:50.740Z,1002.83
2022-12-23T08:04:50.661Z,1002.83
2022-12-23T08:05:50.647Z,1002.81
2022-12-23T08:06:50.690Z,1002.82
2022-12-23T08:07:51.007Z,1002.79
2022-12-23T08:08:50.727Z,1002.77
2022-12-23T08:09:50.795Z,1002.74
2022-12-23T08:10:50.775Z,1002.72
2022-12-23T08:11:50.800Z,1002.68
2022-12-23T08:13:51.155Z,1002.68
2022-12-23T08:14:50.894Z,1002.68
2022-12-23T08:15:50.901Z,1002.65
2022-12-23T08:16:51.016Z,1002.68
2022-12-23T08:17:50.961Z,1002.63
2022-12-23T08:18:50.986Z,1002.60
2022-12-23T08:19:51.011Z,1002.59
2022-12-23T08:20:51.286Z,1002.60
2022-12-23T08:21:51.056Z,1002.67
2022-12-23T08:22:51.080Z,1002.69
2022-12-23T08:23:51.108Z,1002.68
2022-12-23T08:24:51.137Z,1002.66
2022-12-23T08:25:51.173Z,1002.66
2022-12-23T08:26:51.194Z,1002.68
2022-12-23T08:27:51.477Z,1002.64
2022-12-23T08:28:51.233Z,1002.65
2022-12-23T08:29:51.272Z,1002.66
2022-12-23T08:30:51.423Z,1002.61
2022-12-23T08:31:51.315Z,1002.56
2022-12-23T08:32:51.340Z,1002.50
2022-12-23T08:33:51.368Z,1002.53
2022-12-23T08:34:51.691Z,1002.53
2022-12-23T08:35:51.422Z,1002.52
2022-12-23T08:36:51.440Z,1002.49
2022-12-23T08:37:51.467Z,1002.46
2022-12-23T08:38:51.526Z,1002.43
2022-12-23T08:39:51.525Z,1002.43
2022-12-23T08:40:51.848Z,1002.44
2022-12-23T08:41:51.579Z,1002.47
2022-12-23T08:42:51.618Z,1002.47
2022-12-23T08:43:51.622Z,1002.45
2022-12-23T08:44:51.674Z,1002.44
2022-12-23T08:45:51.701Z,1002.46
2022-12-23T08:47:52.118Z,1002.49
2022-12-23T08:48:51.781Z,1002.48
2022-12-23T08:49:51.778Z,1002.47
2022-12-23T08:50:51.822Z,1002.49
2022-12-23T08:51:51.885Z,1002.53
2022-12-23T08:52:51.863Z,1002.58
2022-12-23T08:53:56.401Z,1002.60
2022-12-23T08:54:52.350Z,1002.57
2022-12-23T08:55:52.456Z,1002.58
2022-12-23T08:56:52.778Z,1002.55
2022-12-23T08:57:52.363Z,1002.52
2022-12-23T08:58:52.361Z,1002.56
2022-12-23T08:59:52.337Z,1002.54
2022-12-23T09:00:52.080Z,1002.53
2022-12-23T09:01:52.149Z,1002.52
2022-12-23T09:02:52.284Z,1002.55
2022-12-23T09:03:52.251Z,1002.57
2022-12-23T09:04:52.174Z,1002.65
2022-12-23T09:05:52.189Z,1002.59
2022-12-23T09:06:52.227Z,1002.65
2022-12-23T09:07:52.309Z,1002.67
2022-12-23T09:08:52.267Z,1002.64
2022-12-23T09:09:52.292Z,1002.65
2022-12-23T09:10:52.324Z,1002.64
2022-12-23T09:11:52.343Z,1002.65
2022-12-23T09:12:52.677Z,1002.62
2022-12-23T09:13:52.401Z,1002.57
2022-12-23T09:14:52.428Z,1002.60
2022-12-23T09:16:52.637Z,1002.59
2022-12-23T09:17:52.502Z,1002.56
2022-12-23T09:18:52.535Z,1002.53
2022-12-23T09:19:53.500Z,1002.51
2022-12-23T09:20:52.596Z,1002.48
2022-12-23T09:21:52.611Z,1002.52
2022-12-23T09:22:52.627Z,1002.51
2022-12-23T09:23:52.676Z,1002.51
2022-12-23T09:24:52.685Z,1002.55
2022-12-23T09:25:52.808Z,1002.51
2022-12-23T09:26:53.033Z,1002.55
2022-12-23T09:27:52.766Z,1002.49
2022-12-23T09:28:52.794Z,1002.51
2022-12-23T09:29:52.812Z,1002.47
2022-12-23T09:30:52.871Z,1002.50
2022-12-23T09:31:52.921Z,1002.47
2022-12-23T09:32:52.901Z,1002.40
2022-12-23T09:33:52.919Z,1002.38
2022-12-23T09:34:52.944Z,1002.36
2022-12-23T09:35:52.988Z,1002.35
2022-12-23T09:36:55.449Z,1002.38
2022-12-23T09:37:53.020Z,1002.38
2022-12-23T09:38:53.045Z,1002.42
2022-12-23T09:39:53.068Z,1002.39
2022-12-23T09:40:53.121Z,1002.32
2022-12-23T09:41:53.125Z,1002.31
2022-12-23T09:42:53.147Z,1002.31
2022-12-23T09:43:53.198Z,1002.32
2022-12-23T09:44:53.196Z,1002.31
2022-12-23T09:45:53.531Z,1002.30
2022-12-23T09:46:53.281Z,1002.32
2022-12-23T09:47:53.283Z,1002.26
2022-12-23T09:48:53.311Z,1002.23
2022-12-23T09:49:53.325Z,1002.23
2022-12-23T09:50:53.352Z,1002.23
2022-12-23T09:51:53.652Z,1002.23
2022-12-23T09:52:53.402Z,1002.15
2022-12-23T09:53:53.430Z,1002.15
2022-12-23T09:54:53.473Z,1002.15
2022-12-23T09:55:53.499Z,1002.06
2022-12-23T09:56:53.507Z,1002.01
2022-12-23T09:57:53.804Z,1002.00
2022-12-23T09:58:53.583Z,1002.01
2022-12-23T09:59:53.601Z,1002.02
2022-12-23T10:00:53.622Z,1002.01
2022-12-23T10:01:53.803Z,1002.00
2022-12-23T10:02:54.017Z,1001.99
2022-12-23T10:03:53.788Z,1001.95
2022-12-23T10:04:54.038Z,1001.88
2022-12-23T10:05:53.739Z,1001.87
2022-12-23T10:06:56.342Z,1001.90
2022-12-23T10:07:53.842Z,1001.89
2022-12-23T10:08:53.819Z,1001.88
2022-12-23T10:09:53.869Z,1001.91
2022-12-23T10:10:53.877Z,1001.90
2022-12-23T10:11:54.201Z,1001.84
2022-12-23T10:12:53.920Z,1001.83
2022-12-23T10:13:53.989Z,1001.75
2022-12-23T10:14:54.021Z,1001.70
2022-12-23T10:18:54.386Z,1001.66
2022-12-23T10:19:54.121Z,1001.61
2022-12-23T10:20:54.141Z,1001.62
2022-12-23T10:21:54.160Z,1001.60
2022-12-23T10:22:54.184Z,1001.63
2022-12-23T10:23:54.223Z,1001.63
2022-12-23T10:24:54.231Z,1001.58
2022-12-23T10:25:54.540Z,1001.55
2022-12-23T10:26:54.295Z,1001.53
2022-12-23T10:27:54.327Z,1001.51
2022-12-23T10:28:54.337Z,1001.48
2022-12-23T10:29:54.371Z,1001.45
2022-12-23T10:31:17.209Z,1001.40
2022-12-23T10:31:54.523Z,1001.33
2022-12-23T10:32:54.816Z,1001.30
2022-12-23T10:33:54.465Z,1001.27
2022-12-23T10:34:54.493Z,1001.25
2022-12-23T10:35:54.607Z,1001.23
2022-12-23T10:37:54.572Z,1001.21
2022-12-23T10:38:54.604Z,1001.20
2022-12-23T10:39:54.948Z,1001.16
2022-12-23T10:41:54.692Z,1001.20
2022-12-23T10:43:54.745Z,1001.20
2022-12-23T10:44:54.759Z,1001.20
2022-12-23T10:45:54.786Z,1001.17
2022-12-23T10:46:55.086Z,1001.16
2022-12-23T10:47:54.832Z,1001.17
2022-12-23T10:48:54.866Z,1001.15
2022-12-23T10:49:54.879Z,1001.14
2022-12-23T10:50:54.909Z,1001.14
2022-12-23T10:51:54.938Z,1001.15
2022-12-23T10:52:54.963Z,1001.19
2022-12-23T10:53:55.242Z,1001.22
2022-12-23T10:54:55.015Z,1001.23
2022-12-23T10:55:55.072Z,1001.16
2022-12-23T10:56:55.086Z,1001.21
2022-12-23T10:57:55.091Z,1001.15
2022-12-23T10:58:55.120Z,1001.20
2022-12-23T10:59:55.149Z,1001.16
2022-12-23T11:00:55.631Z,1001.12
2022-12-23T11:01:55.441Z,1001.08
2022-12-23T11:03:55.296Z,1001.05
2022-12-23T11:04:55.272Z,1001.04
2022-12-23T11:05:55.299Z,1000.97
2022-12-23T11:07:18.042Z,1000.94
2022-12-23T11:07:55.813Z,1000.91
2022-12-23T11:08:55.669Z,1000.88
2022-12-23T11:09:55.700Z,1000.93
2022-12-23T11:10:55.841Z,1000.88
2022-12-23T11:11:55.593Z,1000.88
2022-12-23T11:12:55.605Z,1000.91
2022-12-23T11:13:55.807Z,1000.87
2022-12-23T11:14:55.546Z,1000.85
2022-12-23T11:15:55.595Z,1000.86
2022-12-23T11:16:55.667Z,1000.83
2022-12-23T11:17:55.616Z,1000.83
2022-12-23T11:18:55.640Z,1000.84
2022-12-23T11:19:55.965Z,1000.80
2022-12-23T11:20:55.794Z,1000.72
2022-12-23T11:22:55.753Z,1000.73
2022-12-23T11:23:55.769Z,1000.70
2022-12-23T11:24:55.805Z,1000.73
2022-12-23T11:25:56.078Z,1000.69
2022-12-23T11:26:55.847Z,1000.65
2022-12-23T11:28:55.929Z,1000.61
2022-12-23T11:30:57.042Z,1000.51
2022-12-23T11:31:56.029Z,1000.51
2022-12-23T11:32:56.122Z,1000.49
2022-12-23T11:33:56.038Z,1000.45
2022-12-23T11:34:56.175Z,1000.37
2022-12-23T11:35:56.112Z,1000.34
2022-12-23T11:37:00.290Z,1000.35
2022-12-23T11:37:56.231Z,1000.31
2022-12-23T11:38:56.164Z,1000.22
2022-12-23T11:39:56.194Z,1000.21
2022-12-23T11:40:56.216Z,1000.17
2022-12-23T11:41:56.241Z,1000.08
2022-12-23T11:43:56.343Z,1000.02
2022-12-23T11:44:56.633Z,1000.01
2022-12-23T11:48:56.422Z,999.90
2022-12-23T11:49:56.449Z,999.88
2022-12-23T11:50:56.478Z,999.81
2022-12-23T11:51:56.505Z,999.84
2022-12-23T11:52:56.540Z,999.80
2022-12-23T11:53:56.551Z,999.77
2022-12-23T11:54:56.584Z,999.76
2022-12-23T11:55:56.604Z,999.72
2022-12-23T11:56:56.701Z,999.68
2022-12-23T11:57:56.961Z,999.70
2022-12-23T11:58:56.689Z,999.64
2022-12-23T11:59:56.705Z,999.59
2022-12-23T12:00:56.755Z,999.56
2022-12-23T12:01:56.793Z,999.56
2022-12-23T12:02:56.888Z,999.56
2022-12-23T12:03:56.959Z,999.54
2022-12-23T12:04:57.140Z,999.55
2022-12-23T12:06:57.046Z,999.45
2022-12-23T12:07:56.920Z,999.48
2022-12-23T12:08:56.946Z,999.43
2022-12-23T12:09:56.982Z,999.38
2022-12-23T12:10:57.244Z,999.35
2022-12-23T12:11:57.026Z,999.33
2022-12-23T12:12:57.045Z,999.28
2022-12-23T12:13:57.074Z,999.24
2022-12-23T12:14:57.098Z,999.22
2022-12-23T12:15:57.226Z,999.21
2022-12-23T12:16:57.662Z,999.18
2022-12-23T12:17:57.181Z,999.15
2022-12-23T12:18:57.204Z,999.14
2022-12-23T12:19:57.242Z,999.13
2022-12-23T12:20:57.253Z,999.11
2022-12-23T12:21:57.282Z,999.08
2022-12-23T12:22:57.619Z,999.07
2022-12-23T12:24:17.204Z,999.05
2022-12-23T12:24:57.368Z,999.07
2022-12-23T12:25:57.423Z,999.04
2022-12-23T12:28:57.477Z,998.97
2022-12-23T12:29:57.791Z,998.97
2022-12-23T12:30:57.569Z,998.93
2022-12-23T12:31:57.557Z,998.94
2022-12-23T12:32:57.593Z,998.92
2022-12-23T12:33:57.609Z,998.88
2022-12-23T12:34:57.627Z,998.88
2022-12-23T12:36:03.311Z,998.85
2022-12-23T12:36:57.721Z,998.80
2022-12-23T12:37:57.725Z,998.75
2022-12-23T12:38:57.744Z,998.70
2022-12-23T12:39:57.887Z,998.69
2022-12-23T12:40:57.875Z,998.58
2022-12-23T12:42:03.632Z,998.53
2022-12-23T12:42:58.130Z,998.47
2022-12-23T12:43:57.892Z,998.42
2022-12-23T12:44:57.915Z,998.41
2022-12-23T12:45:57.989Z,998.35
2022-12-23T12:46:57.935Z,998.33
2022-12-23T12:48:02.364Z,998.37
2022-12-23T12:48:58.060Z,998.44
2022-12-23T12:49:58.335Z,998.47